Terminal Aerodrome Forecast
Issued by NWS

Home | Current Version | Previous Version | Text Only | Print | Product List | Glossary On
Versions: 1 2 3 4 5 6 7 8 9 10 11 12 13 14 15 16
815
FTUS45 KRIW 220524
TAFCPR
TAF
KCPR 220524Z 2206/2306 25010KT P6SM SKC
     FM221400 22018G28KT P6SM FEW110 BKN250
     FM221900 22022G30KT P6SM BKN120
     FM230100 23012KT P6SM BKN080
     FM230500 25008KT P6SM VCSH BKN050=

USA.gov is the U.S. government's official web portal to all federal, state and local government web resources and services.